sensor_id;sensor_type;location;lat;lon;timestamp;pressure;altitude;pressure_sealevel;temperature;humidity
81704;BME280;71117;52.352;4.808;2023-08-06T00:00:45;100564.28;;;14.25;94.79
81704;BME280;71117;52.352;4.808;2023-08-06T00:03:10;100572.25;;;14.25;94.43
81704;BME280;71117;52.352;4.808;2023-08-06T00:05:35;100569.63;;;14.26;94.29
81704;BME280;71117;52.352;4.808;2023-08-06T00:08:01;100571.38;;;14.29;94.34
81704;BME280;71117;52.352;4.808;2023-08-06T00:10:26;100565.16;;;14.28;94.33
81704;BME280;71117;52.352;4.808;2023-08-06T00:12:52;100570.50;;;14.27;94.26
81704;BME280;71117;52.352;4.808;2023-08-06T00:15:17;100563.41;;;14.27;94.34
81704;BME280;71117;52.352;4.808;2023-08-06T00:17:42;100566.94;;;14.28;94.79
81704;BME280;71117;52.352;4.808;2023-08-06T00:20:08;100560.75;;;14.26;94.69
81704;BME280;71117;52.352;4.808;2023-08-06T00:22:34;100559.88;;;14.25;94.45
81704;BME280;71117;52.352;4.808;2023-08-06T00:25:00;100558.09;;;14.24;94.61
81704;BME280;71117;52.352;4.808;2023-08-06T00:27:26;100553.66;;;14.25;94.72
81704;BME280;71117;52.352;4.808;2023-08-06T00:29:51;100558.97;;;14.28;94.71
81704;BME280;71117;52.352;4.808;2023-08-06T00:32:17;100557.22;;;14.27;94.90
81704;BME280;71117;52.352;4.808;2023-08-06T00:34:43;100559.88;;;14.27;95.06
81704;BME280;71117;52.352;4.808;2023-08-06T00:37:08;100556.34;;;14.31;94.85
81704;BME280;71117;52.352;4.808;2023-08-06T00:39:33;100558.09;;;14.32;94.74
81704;BME280;71117;52.352;4.808;2023-08-06T00:41:59;100558.97;;;14.29;94.69
81704;BME280;71117;52.352;4.808;2023-08-06T00:44:24;100569.59;;;14.33;94.46
81704;BME280;71117;52.352;4.808;2023-08-06T00:46:50;100555.44;;;14.34;94.83
81704;BME280;71117;52.352;4.808;2023-08-06T00:49:15;100553.66;;;14.34;94.73
81704;BME280;71117;52.352;4.808;2023-08-06T00:51:42;100555.41;;;14.38;94.57
81704;BME280;71117;52.352;4.808;2023-08-06T00:54:08;100558.97;;;14.39;94.69
81704;BME280;71117;52.352;4.808;2023-08-06T00:56:35;100555.41;;;14.38;94.27
81704;BME280;71117;52.352;4.808;2023-08-06T00:59:04;100558.06;;;14.41;94.89
81704;BME280;71117;52.352;4.808;2023-08-06T01:01:29;100563.38;;;14.41;94.58
81704;BME280;71117;52.352;4.808;2023-08-06T01:03:55;100565.13;;;14.41;94.98
81704;BME280;71117;52.352;4.808;2023-08-06T01:06:35;100558.94;;;14.45;95.03
81704;BME280;71117;52.352;4.808;2023-08-06T01:09:49;100554.53;;;14.44;94.96
81704;BME280;71117;52.352;4.808;2023-08-06T01:14:28;100556.28;;;14.46;95.07
81704;BME280;71117;52.352;4.808;2023-08-06T01:16:58;100558.06;;;14.50;95.07
81704;BME280;71117;52.352;4.808;2023-08-06T01:19:24;100554.53;;;14.50;95.20
81704;BME280;71117;52.352;4.808;2023-08-06T01:21:49;100550.97;;;14.52;95.17
81704;BME280;71117;52.352;4.808;2023-08-06T01:24:15;100556.28;;;14.54;95.15
81704;BME280;71117;52.352;4.808;2023-08-06T01:27:11;100565.13;;;14.56;94.86
81704;BME280;71117;52.352;4.808;2023-08-06T01:29:50;100563.38;;;14.55;94.85
81704;BME280;71117;52.352;4.808;2023-08-06T01:32:20;100550.09;;;14.55;94.92
81704;BME280;71117;52.352;4.808;2023-08-06T01:34:47;100557.16;;;14.53;94.13
81704;BME280;71117;52.352;4.808;2023-08-06T01:37:13;100563.38;;;14.52;94.47
81704;BME280;71117;52.352;4.808;2023-08-06T01:39:41;100561.59;;;14.55;95.09
81704;BME280;71117;52.352;4.808;2023-08-06T01:42:08;100567.81;;;14.54;95.13
81704;BME280;71117;52.352;4.808;2023-08-06T01:44:33;100563.38;;;14.53;95.11
81704;BME280;71117;52.352;4.808;2023-08-06T01:46:58;100566.03;;;14.53;94.71
81704;BME280;71117;52.352;4.808;2023-08-06T01:49:24;100556.28;;;14.52;94.90
81704;BME280;71117;52.352;4.808;2023-08-06T01:51:49;100565.16;;;14.54;94.58
81704;BME280;71117;52.352;4.808;2023-08-06T01:54:14;100558.06;;;14.53;94.94
81704;BME280;71117;52.352;4.808;2023-08-06T01:56:40;100566.03;;;14.52;94.92
81704;BME280;71117;52.352;4.808;2023-08-06T01:59:05;100565.16;;;14.51;95.31
81704;BME280;71117;52.352;4.808;2023-08-06T02:01:31;100568.69;;;14.52;95.12
81704;BME280;71117;52.352;4.808;2023-08-06T02:03:56;100566.03;;;14.55;95.17
81704;BME280;71117;52.352;4.808;2023-08-06T02:06:21;100572.22;;;14.55;95.22
81704;BME280;71117;52.352;4.808;2023-08-06T02:08:46;100576.66;;;14.55;95.36
81704;BME280;71117;52.352;4.808;2023-08-06T02:11:12;100568.69;;;14.55;95.38
81704;BME280;71117;52.352;4.808;2023-08-06T02:13:37;100571.34;;;14.53;95.41
81704;BME280;71117;52.352;4.808;2023-08-06T02:16:03;100578.44;;;14.51;95.58
81704;BME280;71117;52.352;4.808;2023-08-06T02:18:28;100576.63;;;14.46;95.03
81704;BME280;71117;52.352;4.808;2023-08-06T02:20:58;100573.13;;;14.42;95.41
81704;BME280;71117;52.352;4.808;2023-08-06T02:23:24;100577.53;;;14.40;95.43
81704;BME280;71117;52.352;4.808;2023-08-06T02:26:00;100580.19;;;14.40;95.06
81704;BME280;71117;52.352;4.808;2023-08-06T02:28:25;100574.88;;;14.40;95.39
81704;BME280;71117;52.352;4.808;2023-08-06T02:30:51;100569.56;;;14.36;95.59
81704;BME280;71117;52.352;4.808;2023-08-06T02:33:16;100569.56;;;14.36;95.26
81704;BME280;71117;52.352;4.808;2023-08-06T02:35:42;100575.78;;;14.33;95.20
81704;BME280;71117;52.352;4.808;2023-08-06T02:38:07;100571.34;;;14.30;95.50
81704;BME280;71117;52.352;4.808;2023-08-06T02:40:32;100575.81;;;14.32;95.65
81704;BME280;71117;52.352;4.808;2023-08-06T02:42:58;100584.66;;;14.32;95.77
81704;BME280;71117;52.352;4.808;2023-08-06T02:45:23;100580.22;;;14.33;95.85
81704;BME280;71117;52.352;4.808;2023-08-06T02:47:48;100568.72;;;14.29;95.82
81704;BME280;71117;52.352;4.808;2023-08-06T02:50:14;100574.94;;;14.26;95.77
81704;BME280;71117;52.352;4.808;2023-08-06T02:52:39;100574.03;;;14.26;95.37
81704;BME280;71117;52.352;4.808;2023-08-06T02:55:06;100568.72;;;14.26;95.10
81704;BME280;71117;52.352;4.808;2023-08-06T02:57:31;100574.94;;;14.22;95.91
81704;BME280;71117;52.352;4.808;2023-08-06T02:59:57;100574.91;;;14.23;95.83
81704;BME280;71117;52.352;4.808;2023-08-06T03:02:22;100579.34;;;14.26;95.69
81704;BME280;71117;52.352;4.808;2023-08-06T03:04:47;100581.13;;;14.27;95.48
81704;BME280;71117;52.352;4.808;2023-08-06T03:07:12;100589.97;;;14.27;95.28
81704;BME280;71117;52.352;4.808;2023-08-06T03:09:38;100586.44;;;14.25;95.65
81704;BME280;71117;52.352;4.808;2023-08-06T03:12:03;100583.78;;;14.22;95.67
81704;BME280;71117;52.352;4.808;2023-08-06T03:14:29;100581.13;;;14.25;95.52
81704;BME280;71117;52.352;4.808;2023-08-06T03:16:54;100574.91;;;14.23;95.75
81704;BME280;71117;52.352;4.808;2023-08-06T03:19:19;100574.03;;;14.29;95.84
81704;BME280;71117;52.352;4.808;2023-08-06T03:21:44;100579.34;;;14.29;95.56
81704;BME280;71117;52.352;4.808;2023-08-06T03:24:10;100574.91;;;14.19;94.52
81704;BME280;71117;52.352;4.808;2023-08-06T03:26:35;100575.81;;;14.12;94.07
81704;BME280;71117;52.352;4.808;2023-08-06T03:29:00;100569.66;;;14.10;94.48
81704;BME280;71117;52.352;4.808;2023-08-06T03:31:26;100578.47;;;14.07;94.61
81704;BME280;71117;52.352;4.808;2023-08-06T03:33:51;100577.59;;;14.07;94.24
81704;BME280;71117;52.352;4.808;2023-08-06T03:36:16;100573.16;;;14.02;94.82
81704;BME280;71117;52.352;4.808;2023-08-06T03:38:42;100577.59;;;14.02;94.62
81704;BME280;71117;52.352;4.808;2023-08-06T03:41:07;100575.84;;;13.98;94.93
81704;BME280;71117;52.352;4.808;2023-08-06T03:43:32;100582.06;;;13.86;94.20
81704;BME280;71117;52.352;4.808;2023-08-06T03:45:58;100581.16;;;13.81;94.37
81704;BME280;71117;52.352;4.808;2023-08-06T03:48:23;100592.63;;;13.74;94.39
81704;BME280;71117;52.352;4.808;2023-08-06T03:50:48;100590.88;;;13.73;94.06
81704;BME280;71117;52.352;4.808;2023-08-06T03:53:14;100594.44;;;13.64;94.58
81704;BME280;71117;52.352;4.808;2023-08-06T03:55:39;100597.94;;;13.63;94.76
81704;BME280;71117;52.352;4.808;2023-08-06T03:58:04;100589.09;;;13.60;94.91
81704;BME280;71117;52.352;4.808;2023-08-06T04:00:30;100587.31;;;13.56;94.63
81704;BME280;71117;52.352;4.808;2023-08-06T04:02:55;100583.78;;;13.55;94.99
81704;BME280;71117;52.352;4.808;2023-08-06T04:05:20;100584.69;;;13.54;95.03
81704;BME280;71117;52.352;4.808;2023-08-06T04:07:46;100586.44;;;13.50;94.86
81704;BME280;71117;52.352;4.808;2023-08-06T04:10:11;100589.97;;;13.51;94.23
81704;BME280;71117;52.352;4.808;2023-08-06T04:12:36;100591.75;;;13.50;94.44
81704;BME280;71117;52.352;4.808;2023-08-06T04:15:04;100602.34;;;13.52;93.89
81704;BME280;71117;52.352;4.808;2023-08-06T04:17:30;100596.16;;;13.50;95.17
81704;BME280;71117;52.352;4.808;2023-08-06T04:19:56;100590.84;;;13.45;94.37
81704;BME280;71117;52.352;4.808;2023-08-06T04:22:24;100599.69;;;13.46;94.17
81704;BME280;71117;52.352;4.808;2023-08-06T04:24:50;100606.78;;;13.42;95.00
81704;BME280;71117;52.352;4.808;2023-08-06T04:27:16;100602.34;;;13.44;94.57
81704;BME280;71117;52.352;4.808;2023-08-06T04:29:42;100606.75;;;13.41;94.48
81704;BME280;71117;52.352;4.808;2023-08-06T04:32:09;100608.53;;;13.45;94.62
81704;BME280;71117;52.352;4.808;2023-08-06T04:34:36;100614.75;;;13.48;95.00
81704;BME280;71117;52.352;4.808;2023-08-06T04:37:02;100609.44;;;13.48;95.16
81704;BME280;71117;52.352;4.808;2023-08-06T04:39:27;100613.88;;;13.53;95.20
81704;BME280;71117;52.352;4.808;2023-08-06T04:41:53;100621.81;;;13.56;95.66
81704;BME280;71117;52.352;4.808;2023-08-06T04:44:18;100616.50;;;13.54;95.02
81704;BME280;71117;52.352;4.808;2023-08-06T04:46:44;100622.72;;;13.53;95.36
81704;BME280;71117;52.352;4.808;2023-08-06T04:49:10;100628.00;;;13.55;95.05
81704;BME280;71117;52.352;4.808;2023-08-06T04:51:35;100615.59;;;13.52;94.13
81704;BME280;71117;52.352;4.808;2023-08-06T04:54:01;100626.22;;;13.44;93.65
81704;BME280;71117;52.352;4.808;2023-08-06T04:56:26;100631.50;;;13.40;94.42
81704;BME280;71117;52.352;4.808;2023-08-06T04:58:52;100632.41;;;13.45;94.03
81704;BME280;71117;52.352;4.808;2023-08-06T05:01:17;100630.63;;;13.39;93.94
81704;BME280;71117;52.352;4.808;2023-08-06T05:03:42;100635.94;;;13.36;93.88
81704;BME280;71117;52.352;4.808;2023-08-06T05:06:08;100634.13;;;13.35;94.77
81704;BME280;71117;52.352;4.808;2023-08-06T05:08:33;100634.13;;;13.35;94.44
81704;BME280;71117;52.352;4.808;2023-08-06T05:10:59;100637.66;;;13.34;94.73
81704;BME280;71117;52.352;4.808;2023-08-06T05:13:24;100636.78;;;13.35;94.05
81704;BME280;71117;52.352;4.808;2023-08-06T05:15:50;100635.03;;;13.37;94.36
81704;BME280;71117;52.352;4.808;2023-08-06T05:18:16;100638.56;;;13.39;95.13
81704;BME280;71117;52.352;4.808;2023-08-06T05:20:42;100642.13;;;13.41;94.69
81704;BME280;71117;52.352;4.808;2023-08-06T05:23:08;100642.13;;;13.43;94.93
81704;BME280;71117;52.352;4.808;2023-08-06T05:25:36;100639.47;;;13.46;94.98
81704;BME280;71117;52.352;4.808;2023-08-06T05:28:02;100642.16;;;13.49;95.04
81704;BME280;71117;52.352;4.808;2023-08-06T05:30:28;100648.34;;;13.54;94.41
81704;BME280;71117;52.352;4.808;2023-08-06T05:32:53;100650.16;;;13.64;95.03
81704;BME280;71117;52.352;4.808;2023-08-06T05:35:19;100657.19;;;13.61;94.78
81704;BME280;71117;52.352;4.808;2023-08-06T05:37:44;100657.22;;;13.64;94.56
81704;BME280;71117;52.352;4.808;2023-08-06T05:40:09;100663.41;;;13.66;95.00
81704;BME280;71117;52.352;4.808;2023-08-06T05:42:35;100674.03;;;13.70;94.85
81704;BME280;71117;52.352;4.808;2023-08-06T05:45:00;100674.91;;;13.72;94.93
81704;BME280;71117;52.352;4.808;2023-08-06T05:47:25;100680.22;;;13.74;94.42
81704;BME280;71117;52.352;4.808;2023-08-06T05:49:51;100676.69;;;13.72;94.75
81704;BME280;71117;52.352;4.808;2023-08-06T05:52:16;100687.28;;;13.72;94.72
81704;BME280;71117;52.352;4.808;2023-08-06T05:54:41;100687.31;;;13.76;94.05
81704;BME280;71117;52.352;4.808;2023-08-06T05:57:07;100684.66;;;13.80;93.83
81704;BME280;71117;52.352;4.808;2023-08-06T05:59:32;100696.16;;;13.80;94.51
81704;BME280;71117;52.352;4.808;2023-08-06T06:01:57;100693.53;;;13.82;94.36
81704;BME280;71117;52.352;4.808;2023-08-06T06:04:23;100694.41;;;13.82;94.65
81704;BME280;71117;52.352;4.808;2023-08-06T06:06:48;100697.94;;;13.87;93.98
81704;BME280;71117;52.352;4.808;2023-08-06T06:09:14;100692.63;;;13.84;94.41
81704;BME280;71117;52.352;4.808;2023-08-06T06:11:39;100706.78;;;13.89;93.64
81704;BME280;71117;52.352;4.808;2023-08-06T06:14:04;100707.66;;;13.84;94.03
81704;BME280;71117;52.352;4.808;2023-08-06T06:16:30;100705.00;;;13.79;93.38
81704;BME280;71117;52.352;4.808;2023-08-06T06:18:55;100710.31;;;13.76;93.86
81704;BME280;71117;52.352;4.808;2023-08-06T06:21:22;100713.84;;;13.75;93.91
81704;BME280;71117;52.352;4.808;2023-08-06T06:23:48;100713.84;;;13.80;94.10
81704;BME280;71117;52.352;4.808;2023-08-06T06:26:13;100715.63;;;13.77;93.80
81704;BME280;71117;52.352;4.808;2023-08-06T06:28:38;100716.50;;;13.78;92.95
81704;BME280;71117;52.352;4.808;2023-08-06T06:31:04;100709.41;;;13.79;92.69
81704;BME280;71117;52.352;4.808;2023-08-06T06:33:29;100717.38;;;13.77;93.03
81704;BME280;71117;52.352;4.808;2023-08-06T06:35:55;100720.03;;;13.74;93.34
81704;BME280;71117;52.352;4.808;2023-08-06T06:38:20;100727.13;;;13.78;93.33
81704;BME280;71117;52.352;4.808;2023-08-06T06:40:57;100724.47;;;13.81;93.52
81704;BME280;71117;52.352;4.808;2023-08-06T06:43:24;100727.13;;;13.81;93.31
81704;BME280;71117;52.352;4.808;2023-08-06T06:45:53;100732.41;;;13.80;94.28
81704;BME280;71117;52.352;4.808;2023-08-06T06:48:19;100737.75;;;13.81;94.02
81704;BME280;71117;52.352;4.808;2023-08-06T06:50:47;100743.94;;;13.85;93.96
81704;BME280;71117;52.352;4.808;2023-08-06T06:53:13;100735.13;;;13.87;94.33
81704;BME280;71117;52.352;4.808;2023-08-06T06:55:38;100741.31;;;13.88;93.67
81704;BME280;71117;52.352;4.808;2023-08-06T06:58:04;100741.31;;;13.92;94.21
81704;BME280;71117;52.352;4.808;2023-08-06T07:00:29;100741.28;;;13.91;93.51
81704;BME280;71117;52.352;4.808;2023-08-06T07:02:54;100744.84;;;13.88;93.26
81704;BME280;71117;52.352;4.808;2023-08-06T07:05:19;100742.19;;;13.96;93.54
81704;BME280;71117;52.352;4.808;2023-08-06T07:07:45;100741.31;;;13.95;93.72
81704;BME280;71117;52.352;4.808;2023-08-06T07:10:10;100740.44;;;13.98;93.29
81704;BME280;71117;52.352;4.808;2023-08-06T07:12:36;100743.09;;;14.02;93.78
81704;BME280;71117;52.352;4.808;2023-08-06T07:15:04;100745.75;;;14.06;93.92
81704;BME280;71117;52.352;4.808;2023-08-06T07:17:30;100737.81;;;14.09;94.19
81704;BME280;71117;52.352;4.808;2023-08-06T07:19:55;100750.19;;;14.10;93.54
81704;BME280;71117;52.352;4.808;2023-08-06T07:22:20;100744.88;;;14.08;93.66
81704;BME280;71117;52.352;4.808;2023-08-06T07:24:45;100747.56;;;14.14;93.61
81704;BME280;71117;52.352;4.808;2023-08-06T07:27:11;100757.25;;;14.08;93.09
81704;BME280;71117;52.352;4.808;2023-08-06T07:29:36;100751.94;;;14.14;92.83
81704;BME280;71117;52.352;4.808;2023-08-06T07:32:01;100758.16;;;14.19;93.21
81704;BME280;71117;52.352;4.808;2023-08-06T07:34:27;100759.06;;;14.18;92.49
81704;BME280;71117;52.352;4.808;2023-08-06T07:36:52;100760.81;;;14.19;93.47
81704;BME280;71117;52.352;4.808;2023-08-06T07:39:17;100759.06;;;14.24;93.20
81704;BME280;71117;52.352;4.808;2023-08-06T07:41:43;100759.06;;;14.21;92.88
81704;BME280;71117;52.352;4.808;2023-08-06T07:44:08;100765.25;;;14.29;92.86
81704;BME280;71117;52.352;4.808;2023-08-06T07:46:33;100767.06;;;14.32;93.19
81704;BME280;71117;52.352;4.808;2023-08-06T07:48:59;100762.59;;;14.30;92.86
81704;BME280;71117;52.352;4.808;2023-08-06T07:51:24;100766.16;;;14.28;93.42
81704;BME280;71117;52.352;4.808;2023-08-06T07:53:50;100764.38;;;14.27;92.67
81704;BME280;71117;52.352;4.808;2023-08-06T07:56:15;100765.25;;;14.29;92.69
81704;BME280;71117;52.352;4.808;2023-08-06T07:58:40;100776.78;;;14.33;93.38
81704;BME280;71117;52.352;4.808;2023-08-06T08:01:06;100772.34;;;14.36;93.04
81704;BME280;71117;52.352;4.808;2023-08-06T08:03:32;100773.25;;;14.32;93.06
81704;BME280;71117;52.352;4.808;2023-08-06T08:05:57;100774.13;;;14.34;92.72
81704;BME280;71117;52.352;4.808;2023-08-06T08:08:23;100780.31;;;14.35;93.26
81704;BME280;71117;52.352;4.808;2023-08-06T08:10:49;100776.78;;;14.34;93.05
81704;BME280;71117;52.352;4.808;2023-08-06T08:13:14;100774.13;;;14.45;92.96
81704;BME280;71117;52.352;4.808;2023-08-06T08:15:39;100774.16;;;14.43;93.04
81704;BME280;71117;52.352;4.808;2023-08-06T08:18:05;100775.91;;;14.46;92.18
81704;BME280;71117;52.352;4.808;2023-08-06T08:20:30;100775.03;;;14.53;92.55
81704;BME280;71117;52.352;4.808;2023-08-06T08:23:00;100782.16;;;14.55;92.29
81704;BME280;71117;52.352;4.808;2023-08-06T08:25:26;100789.25;;;14.60;92.56
81704;BME280;71117;52.352;4.808;2023-08-06T08:27:52;100781.25;;;14.67;92.56
81704;BME280;71117;52.352;4.808;2023-08-06T08:30:18;100781.25;;;14.67;93.01
81704;BME280;71117;52.352;4.808;2023-08-06T08:32:43;100783.00;;;14.80;92.13
81704;BME280;71117;52.352;4.808;2023-08-06T08:35:09;100782.13;;;14.89;91.83
81704;BME280;71117;52.352;4.808;2023-08-06T08:37:35;100790.09;;;15.01;92.09
81704;BME280;71117;52.352;4.808;2023-08-06T08:40:01;100776.78;;;15.06;91.27
81704;BME280;71117;52.352;4.808;2023-08-06T08:42:28;100779.44;;;15.17;90.74
81704;BME280;71117;52.352;4.808;2023-08-06T08:44:54;100776.75;;;15.14;90.49
81704;BME280;71117;52.352;4.808;2023-08-06T08:47:20;100782.06;;;15.29;91.61
81704;BME280;71117;52.352;4.808;2023-08-06T08:49:46;100778.47;;;15.41;89.54
81704;BME280;71117;52.352;4.808;2023-08-06T08:52:15;100789.09;;;15.50;89.97
81704;BME280;71117;52.352;4.808;2023-08-06T08:54:41;100788.19;;;15.51;90.68
81704;BME280;71117;52.352;4.808;2023-08-06T08:57:08;100782.84;;;15.58;89.12
81704;BME280;71117;52.352;4.808;2023-08-06T08:59:34;100790.81;;;15.54;89.10
81704;BME280;71117;52.352;4.808;2023-08-06T09:02:00;100797.03;;;15.60;89.65
81704;BME280;71117;52.352;4.808;2023-08-06T09:04:29;100794.38;;;15.68;89.32
81704;BME280;71117;52.352;4.808;2023-08-06T09:06:58;100801.44;;;15.78;89.96
81704;BME280;71117;52.352;4.808;2023-08-06T09:09:31;100806.78;;;15.74;88.39
81704;BME280;71117;52.352;4.808;2023-08-06T09:12:01;100804.16;;;15.66;89.41
81704;BME280;71117;52.352;4.808;2023-08-06T09:14:28;100814.78;;;15.65;90.02
81704;BME280;71117;52.352;4.808;2023-08-06T09:16:54;100813.91;;;15.55;89.53
81704;BME280;71117;52.352;4.808;2023-08-06T09:19:20;100814.78;;;15.60;88.72
81704;BME280;71117;52.352;4.808;2023-08-06T09:21:45;100815.66;;;15.59;88.40
81704;BME280;71117;52.352;4.808;2023-08-06T09:24:14;100823.66;;;15.65;87.42
81704;BME280;71117;52.352;4.808;2023-08-06T09:26:40;100827.19;;;15.70;87.59
81704;BME280;71117;52.352;4.808;2023-08-06T09:29:07;100829.84;;;15.73;87.79
81704;BME280;71117;52.352;4.808;2023-08-06T09:31:43;100828.91;;;15.86;87.34
81704;BME280;71117;52.352;4.808;2023-08-06T09:34:18;100827.06;;;15.99;87.10
81704;BME280;71117;52.352;4.808;2023-08-06T09:36:51;100835.03;;;16.05;87.46
81704;BME280;71117;52.352;4.808;2023-08-06T09:39:18;100843.88;;;16.10;87.88
81704;BME280;71117;52.352;4.808;2023-08-06T09:41:45;100849.28;;;15.95;86.01
81704;BME280;71117;52.352;4.808;2023-08-06T09:44:18;100852.81;;;16.02;85.82
81704;BME280;71117;52.352;4.808;2023-08-06T09:46:52;100841.31;;;15.89;87.23
81704;BME280;71117;52.352;4.808;2023-08-06T09:49:19;100859.97;;;15.84;87.85
81704;BME280;71117;52.352;4.808;2023-08-06T09:51:46;100862.69;;;15.69;85.73
81704;BME280;71117;52.352;4.808;2023-08-06T09:54:16;100862.66;;;15.75;87.57
81704;BME280;71117;52.352;4.808;2023-08-06T09:56:44;100873.31;;;15.75;87.26
81704;BME280;71117;52.352;4.808;2023-08-06T09:59:09;100870.69;;;15.72;86.38
81704;BME280;71117;52.352;4.808;2023-08-06T10:01:36;100868.91;;;15.77;86.09
81704;BME280;71117;52.352;4.808;2023-08-06T10:04:06;100873.31;;;15.80;86.84
81704;BME280;71117;52.352;4.808;2023-08-06T10:06:36;100873.31;;;15.74;85.13
81704;BME280;71117;52.352;4.808;2023-08-06T10:09:06;100876.00;;;15.72;85.97
81704;BME280;71117;52.352;4.808;2023-08-06T10:11:31;100875.97;;;15.75;87.46
81704;BME280;71117;52.352;4.808;2023-08-06T10:14:02;100879.50;;;15.80;87.09
81704;BME280;71117;52.352;4.808;2023-08-06T10:16:29;100875.94;;;15.81;87.80
81704;BME280;71117;52.352;4.808;2023-08-06T10:18:55;100876.88;;;15.79;86.51
81704;BME280;71117;52.352;4.808;2023-08-06T10:21:23;100877.75;;;15.75;87.57
81704;BME280;71117;52.352;4.808;2023-08-06T10:23:54;100881.34;;;15.65;85.63
81704;BME280;71117;52.352;4.808;2023-08-06T10:26:20;100885.75;;;15.69;86.52
81704;BME280;71117;52.352;4.808;2023-08-06T10:28:45;100888.44;;;15.55;85.83
81704;BME280;71117;52.352;4.808;2023-08-06T10:31:11;100883.09;;;15.52;85.91
81704;BME280;71117;52.352;4.808;2023-08-06T10:33:43;100890.19;;;15.48;86.19
81704;BME280;71117;52.352;4.808;2023-08-06T10:36:10;100890.22;;;15.64;86.69
81704;BME280;71117;52.352;4.808;2023-08-06T10:38:44;100891.97;;;15.58;86.71
81704;BME280;71117;52.352;4.808;2023-08-06T10:41:27;100892.88;;;15.50;86.67
81704;BME280;71117;52.352;4.808;2023-08-06T10:44:08;100893.78;;;15.49;86.28
81704;BME280;71117;52.352;4.808;2023-08-06T10:46:35;100899.06;;;15.58;86.65
81704;BME280;71117;52.352;4.808;2023-08-06T10:49:01;100891.97;;;15.55;87.43
81704;BME280;71117;52.352;4.808;2023-08-06T10:51:27;100896.44;;;15.50;87.10
81704;BME280;71117;52.352;4.808;2023-08-06T10:53:53;100905.28;;;15.42;87.49
81704;BME280;71117;52.352;4.808;2023-08-06T10:58:46;100912.41;;;15.33;88.09
81704;BME280;71117;52.352;4.808;2023-08-06T11:01:12;100904.44;;;15.27;88.26
81704;BME280;71117;52.352;4.808;2023-08-06T11:03:38;100911.53;;;15.33;88.87
81704;BME280;71117;52.352;4.808;2023-08-06T11:06:06;100915.06;;;15.29;87.73
81704;BME280;71117;52.352;4.808;2023-08-06T11:08:37;100908.00;;;15.10;87.95
81704;BME280;71117;52.352;4.808;2023-08-06T11:11:10;100908.00;;;15.10;88.75
81704;BME280;71117;52.352;4.808;2023-08-06T11:13:42;100914.22;;;15.10;88.04
81704;BME280;71117;52.352;4.808;2023-08-06T11:16:08;100913.31;;;15.00;87.78
81704;BME280;71117;52.352;4.808;2023-08-06T11:18:34;100915.06;;;15.01;88.02
81704;BME280;71117;52.352;4.808;2023-08-06T11:21:00;100914.22;;;15.10;88.94
81704;BME280;71117;52.352;4.808;2023-08-06T11:23:29;100914.19;;;15.15;88.86
81704;BME280;71117;52.352;4.808;2023-08-06T11:25:56;100909.75;;;15.12;89.00
81704;BME280;71117;52.352;4.808;2023-08-06T11:28:21;100916.88;;;15.21;88.63
81704;BME280;71117;52.352;4.808;2023-08-06T11:30:47;100917.75;;;15.33;88.76
81704;BME280;71117;52.352;4.808;2023-08-06T11:33:13;100917.72;;;15.46;88.84
81704;BME280;71117;52.352;4.808;2023-08-06T11:35:38;100922.16;;;15.45;87.83
81704;BME280;71117;52.352;4.808;2023-08-06T11:38:05;100915.06;;;15.44;87.41
81704;BME280;71117;52.352;4.808;2023-08-06T11:40:31;100913.28;;;15.51;88.06
81704;BME280;71117;52.352;4.808;2023-08-06T11:42:57;100909.72;;;15.69;88.17
81704;BME280;71117;52.352;4.808;2023-08-06T11:45:24;100914.13;;;15.80;85.81
81704;BME280;71117;52.352;4.808;2023-08-06T11:47:50;100906.09;;;15.88;86.42
81704;BME280;71117;52.352;4.808;2023-08-06T11:50:26;100906.94;;;16.11;86.76
81704;BME280;71117;52.352;4.808;2023-08-06T11:52:57;100918.38;;;16.35;86.07
81704;BME280;71117;52.352;4.808;2023-08-06T11:55:24;100919.22;;;16.45;85.58
81704;BME280;71117;52.352;4.808;2023-08-06T11:57:50;100928.91;;;16.55;85.25
81704;BME280;71117;52.352;4.808;2023-08-06T12:00:15;100906.63;;;16.65;84.91
81704;BME280;71117;52.352;4.808;2023-08-06T12:02:44;100921.78;;;16.60;83.63
81704;BME280;71117;52.352;4.808;2023-08-06T12:05:11;100914.59;;;16.76;84.27
81704;BME280;71117;52.352;4.808;2023-08-06T12:07:38;100920.81;;;16.79;83.10
81704;BME280;71117;52.352;4.808;2023-08-06T12:10:04;100926.00;;;17.01;84.18
81704;BME280;71117;52.352;4.808;2023-08-06T12:12:30;100924.81;;;17.35;83.73
81704;BME280;71117;52.352;4.808;2023-08-06T12:14:56;100934.38;;;17.59;82.13
81704;BME280;71117;52.352;4.808;2023-08-06T12:17:22;100939.50;;;17.85;81.72
81704;BME280;71117;52.352;4.808;2023-08-06T12:19:47;100939.69;;;17.62;80.02
81704;BME280;71117;52.352;4.808;2023-08-06T12:22:14;100931.41;;;17.91;79.15
81704;BME280;71117;52.352;4.808;2023-08-06T12:24:43;100929.13;;;18.32;79.34
81704;BME280;71117;52.352;4.808;2023-08-06T12:27:09;100935.16;;;18.46;77.73
81704;BME280;71117;52.352;4.808;2023-08-06T12:29:35;100933.16;;;18.65;78.52
81704;BME280;71117;52.352;4.808;2023-08-06T12:32:01;100935.66;;;18.77;75.66
81704;BME280;71117;52.352;4.808;2023-08-06T12:34:27;100946.75;;;19.11;76.25
81704;BME280;71117;52.352;4.808;2023-08-06T12:36:52;100948.25;;;19.27;75.95
81704;BME280;71117;52.352;4.808;2023-08-06T12:39:18;100950.25;;;19.13;75.87
81704;BME280;71117;52.352;4.808;2023-08-06T12:41:43;100941.88;;;19.87;75.73
81704;BME280;71117;52.352;4.808;2023-08-06T12:44:11;100955.81;;;19.55;72.82
81704;BME280;71117;52.352;4.808;2023-08-06T12:46:36;100953.50;;;19.34;74.74
81704;BME280;71117;52.352;4.808;2023-08-06T12:49:02;100963.66;;;19.15;73.99
81704;BME280;71117;52.352;4.808;2023-08-06T12:51:27;100962.72;;;19.16;75.89